Time;durP1;ratioP1;P1;durP2;ratioP2;P2;SDS_P1;SDS_P2;PMS_P1;PMS_P2;Temp;Humidity;BMP_temperature;BMP_pressure;BME280_temperature;BME280_humidity;BME280_pressure;Samples;Min_cycle;Max_cycle;Signal;HPM_P1;HPM_P2
2024/02/07 00:00:19;;;;;;;;;10.25;8.75;;;;;9.76;50.96;101078.25;146623;589;45020;-62
2024/02/07 00:03:22;;;;;;;;;12.00;9.00;;;;;9.70;51.48;101071.88;146615;651;46016;-63
2024/02/07 00:06:21;;;;;;;;;11.75;9.25;;;;;9.64;51.67;101070.63;146619;575;46020;-62
2024/02/07 00:09:20;;;;;;;;;12.25;10.75;;;;;9.60;52.23;101069.56;146615;577;47016;-63
2024/02/07 00:12:23;;;;;;;;;14.50;13.25;;;;;9.56;52.01;101070.13;146612;668;46021;-62
2024/02/07 00:15:18;;;;;;;;;11.00;11.00;;;;;9.55;51.69;101068.38;146615;565;47012;-63
2024/02/07 00:18:20;;;;;;;;;11.75;10.25;;;;;9.54;52.30;101069.19;146617;569;46010;-63
2024/02/07 00:21:13;;;;;;;;;13.75;11.00;;;;;9.51;51.64;101074.16;146618;594;46012;-63
2024/02/07 00:24:10;;;;;;;;;12.25;12.00;;;;;9.47;52.43;101069.62;146619;570;46020;-63
2024/02/07 00:27:03;;;;;;;;;12.25;11.00;;;;;9.43;52.46;101078.84;146618;600;46012;-66
2024/02/07 00:29:57;;;;;;;;;10.25;9.00;;;;;9.43;52.05;101070.22;146620;588;46010;-65
2024/02/07 00:32:53;;;;;;;;;14.00;12.00;;;;;9.42;52.25;101071.00;146617;634;46016;-66
2024/02/07 00:35:45;;;;;;;;;12.00;10.25;;;;;9.41;52.55;101080.47;146619;608;46010;-65
2024/02/07 00:38:46;;;;;;;;;26.25;22.50;;;;;9.34;52.79;101073.12;146616;626;46012;-65
2024/02/07 00:41:39;;;;;;;;;48.00;38.00;;;;;9.31;52.00;101069.44;146618;581;45021;-64
2024/02/07 00:44:43;;;;;;;;;30.50;26.75;;;;;9.41;51.87;101079.59;146616;624;46016;-64
2024/02/07 00:47:40;;;;;;;;;25.75;24.00;;;;;9.42;52.59;101071.00;146622;625;45582;-64
2024/02/07 00:50:35;;;;;;;;;18.50;17.25;;;;;9.41;52.25;101075.31;146616;611;47916;-64
2024/02/07 00:53:34;;;;;;;;;24.50;20.25;;;;;9.40;52.45;101072.59;146619;606;46020;-64
2024/02/07 00:56:38;;;;;;;;;17.00;15.50;;;;;9.36;52.90;101060.28;146614;626;46012;-65
2024/02/07 00:59:43;;;;;;;;;13.50;12.75;;;;;9.29;53.32;101053.84;146617;575;46020;-63
2024/02/07 01:02:44;;;;;;;;;13.75;13.00;;;;;9.23;53.09;101059.53;146613;628;46916;-66
2024/02/07 01:05:38;;;;;;;;;20.00;16.75;;;;;9.22;52.75;101062.00;146619;584;46020;-64
2024/02/07 01:08:32;;;;;;;;;17.50;15.50;;;;;9.21;52.55;101061.13;146616;587;46021;-68
2024/02/07 01:11:28;;;;;;;;;18.25;15.50;;;;;9.23;53.38;101058.62;146619;647;46020;-67
2024/02/07 01:14:25;;;;;;;;;18.75;16.50;;;;;9.19;53.56;101048.88;146617;609;46016;-65
2024/02/07 01:17:21;;;;;;;;;12.75;11.25;;;;;9.15;53.62;101046.91;146620;595;46020;-65
2024/02/07 01:20:17;;;;;;;;;15.00;14.75;;;;;9.15;53.28;101041.75;146616;617;47012;-64
2024/02/07 01:23:10;;;;;;;;;14.50;13.50;;;;;9.16;52.80;101041.84;146615;603;46912;-65
2024/02/07 01:26:08;;;;;;;;;16.50;13.75;;;;;9.15;53.28;101032.28;146620;630;46012;-64
2024/02/07 01:29:01;;;;;;;;;18.50;15.00;;;;;9.17;53.39;101041.03;146620;574;45020;-64
2024/02/07 01:31:54;;;;;;;;;13.75;12.75;;;;;9.16;53.08;101040.97;146615;571;46017;-63
2024/02/07 01:34:49;;;;;;;;;14.00;13.75;;;;;9.16;53.29;101028.03;146617;592;46020;-64
2024/02/07 01:37:46;;;;;;;;;13.25;12.75;;;;;9.13;53.21;101030.44;146616;652;47016;-63
2024/02/07 01:40:47;;;;;;;;;13.00;11.00;;;;;9.10;52.42;101040.59;146618;704;46011;-64
2024/02/07 01:43:45;;;;;;;;;12.00;11.00;;;;;9.04;53.12;101032.44;146615;609;47014;-63
2024/02/07 01:46:38;;;;;;;;;16.00;10.00;;;;;8.97;53.73;101033.72;146614;571;47010;-64
2024/02/07 01:49:32;;;;;;;;;13.00;10.75;;;;;8.90;54.67;101036.72;146615;607;47027;-65
2024/02/07 01:52:35;;;;;;;;;13.00;12.00;;;;;8.82;54.29;101038.84;146618;616;47010;-63
2024/02/07 01:55:37;;;;;;;;;13.00;10.75;;;;;8.73;54.33;101028.81;146617;599;46013;-64
2024/02/07 01:58:34;;;;;;;;;13.00;11.75;;;;;8.71;55.11;101025.22;146619;653;46020;-65
2024/02/07 02:01:30;;;;;;;;;10.75;10.50;;;;;8.71;53.98;101021.75;146618;620;47013;-64
2024/02/07 02:04:26;;;;;;;;;11.25;9.00;;;;;8.66;54.52;101016.31;146617;587;46020;-63
2024/02/07 02:07:29;;;;;;;;;9.25;9.00;;;;;8.72;54.09;101023.53;146620;636;46012;-66
2024/02/07 02:10:28;;;;;;;;;11.75;9.00;;;;;8.71;54.60;101014.00;146626;580;45021;-66
2024/02/07 02:13:23;;;;;;;;;8.50;8.50;;;;;8.63;55.25;101020.34;146621;572;46012;-65
2024/02/07 02:16:19;;;;;;;;;7.25;7.25;;;;;8.55;54.95;101025.06;146621;601;46021;-66
2024/02/07 02:19:20;;;;;;;;;9.00;9.00;;;;;8.49;55.24;101011.75;146622;593;46012;-64
2024/02/07 02:22:58;;;;;;;;;12.00;9.00;;;;;8.42;53.94;101014.75;146618;563;48010;-64
2024/02/07 02:26:49;;;;;;;;;9.50;7.00;;;;;5.81;54.01;100559.16;146615;614;47012;-64
2024/02/07 02:33:29;;;;;;;;;8.75;7.25;;;;;8.26;55.07;101000.78;146618;569;46016;-64
2024/02/07 02:36:23;;;;;;;;;6.25;6.25;;;;;8.27;55.21;100999.09;146621;578;46020;-65
2024/02/07 02:39:20;;;;;;;;;12.00;8.00;;;;;8.26;55.05;100997.31;146617;586;46014;-66
2024/02/07 02:42:35;;;;;;;;;9.25;8.25;;;;;8.24;55.53;101004.94;146620;669;46020;-66
2024/02/07 02:45:35;;;;;;;;;10.00;10.00;;;;;8.15;55.36;100999.19;146617;625;46018;-65
2024/02/07 02:48:27;;;;;;;;;9.50;9.25;;;;;8.08;55.33;101005.66;146618;585;47010;-66
2024/02/07 02:51:37;;;;;;;;;13.00;10.00;;;;;8.06;55.98;100996.87;146618;587;46016;-65
2024/02/07 02:54:46;;;;;;;;;9.75;9.00;;;;;8.08;56.36;100999.59;146618;569;46020;-65
2024/02/07 03:00:52;;;;;;;;;12.50;10.75;;;;;8.16;54.75;100992.31;146619;573;46020;-64
2024/02/07 03:03:53;;;;;;;;;10.00;8.25;;;;;8.26;54.55;100998.22;146617;588;46012;-64
2024/02/07 03:07:25;;;;;;;;;10.75;9.50;;;;;8.31;54.44;100999.37;146621;583;46020;-65
2024/02/07 03:10:26;;;;;;;;;;;;;;;;;;;;;
2024/02/07 03:13:38;;;;;;;;;9.25;8.75;;;;;8.44;54.04;101000.19;146621;690;46010;-66
2024/02/07 03:16:33;;;;;;;;;8.50;7.50;;;;;8.42;54.27;100997.53;146619;591;46014;-66
2024/02/07 03:19:39;;;;;;;;;9.00;7.00;;;;;8.38;54.08;100995.56;146625;703;46020;-65
2024/02/07 03:22:32;;;;;;;;;10.75;8.50;;;;;8.37;53.85;100995.41;146620;656;46013;-65
2024/02/07 03:25:24;;;;;;;;;7.50;7.50;;;;;8.37;54.55;101004.06;146621;651;46020;-64
2024/02/07 03:28:21;;;;;;;;;6.75;6.75;;;;;8.34;54.36;100997.00;146620;569;46012;-64
2024/02/07 03:31:13;;;;;;;;;5.00;5.00;;;;;8.28;54.26;100988.84;146623;637;45033;-65
2024/02/07 03:34:09;;;;;;;;;46.25;36.00;;;;;8.25;54.23;100996.41;146617;688;46016;-64
2024/02/07 03:37:03;;;;;;;;;6.75;6.75;;;;;8.21;54.24;100998.69;146615;599;46010;-65
2024/02/07 03:39:55;;;;;;;;;7.50;7.25;;;;;8.23;54.58;100997.13;146619;609;46915;-65
2024/02/07 03:42:53;;;;;;;;;3.50;3.50;;;;;8.24;53.94;100996.31;146622;740;47010;-65
2024/02/07 03:45:46;;;;;;;;;16.75;14.25;;;;;8.30;53.73;100988.97;146619;604;46013;-65
2024/02/07 03:48:42;;;;;;;;;9.00;8.00;;;;;8.41;53.38;100997.41;146620;630;46020;-65
2024/02/07 03:51:38;;;;;;;;;15.50;13.25;;;;;8.52;53.47;101002.47;146617;564;46016;-65
2024/02/07 03:54:31;;;;;;;;;47.25;37.50;;;;;8.55;52.98;100996.63;146621;615;46010;-64
2024/02/07 03:57:27;;;;;;;;;9.00;8.00;;;;;8.53;53.21;100996.50;146617;628;46014;-64
2024/02/07 04:00:25;;;;;;;;;10.75;10.75;;;;;8.53;53.56;100998.22;146621;602;46020;-65
2024/02/07 04:03:27;;;;;;;;;8.50;7.75;;;;;8.49;52.85;101004.88;146615;582;46016;-68
2024/02/07 04:06:28;;;;;;;;;9.25;7.00;;;;;8.50;53.15;101000.59;146621;605;46020;-67
2024/02/07 04:09:31;;;;;;;;;12.50;11.50;;;;;8.52;53.33;100991.25;146617;606;47016;-67
2024/02/07 05:16:33;;;;;;;;;24.25;21.50;;;;;8.03;55.84;101001.84;146621;571;46020;-65
2024/02/07 05:19:27;;;;;;;;;12.25;12.25;;;;;8.03;55.62;100996.69;146614;569;46016;-65
2024/02/07 05:22:20;;;;;;;;;32.25;28.50;;;;;8.06;55.80;100985.69;146613;605;46021;-65
2024/02/07 05:25:17;;;;;;;;;13.75;10.75;;;;;8.12;55.12;100990.34;146614;621;47014;-65
2024/02/07 05:28:17;;;;;;;;;28.00;25.50;;;;;8.14;54.77;101010.31;146619;561;47010;-64
2024/02/07 05:31:10;;;;;;;;;11.75;11.00;;;;;8.12;55.56;101009.31;146614;587;46576;-65
2024/02/07 05:34:06;;;;;;;;;18.25;14.25;;;;;8.11;55.42;101015.28;146618;569;45020;-65
2024/02/07 05:37:02;;;;;;;;;10.00;9.25;;;;;8.07;56.36;101011.62;146616;598;46016;-64
2024/02/07 05:39:53;;;;;;;;;21.50;19.50;;;;;8.04;56.43;101018.28;146621;571;46020;-65
2024/02/07 05:42:51;;;;;;;;;58.00;46.75;;;;;8.00;56.67;101024.00;146614;693;46016;-65
2024/02/07 05:45:45;;;;;;;;;71.00;54.75;;;;;8.02;56.67;101032.75;146620;674;46021;-65
2024/02/07 05:48:39;;;;;;;;;18.50;15.00;;;;;8.05;56.01;101030.37;146617;563;46014;-64
2024/02/07 05:51:35;;;;;;;;;16.00;13.00;;;;;8.12;56.57;101027.41;146621;605;46011;-65
2024/02/07 05:54:35;;;;;;;;;58.25;46.50;;;;;8.17;56.05;101033.78;146614;581;47012;-64
2024/02/07 05:57:27;;;;;;;;;19.75;16.00;;;;;8.21;57.26;101040.91;146634;605;46020;-65
2024/02/07 06:00:28;;;;;;;;;21.00;18.00;;;;;8.22;56.07;101049.56;146618;589;46016;-67
2024/02/07 06:03:20;;;;;;;;;39.50;32.00;;;;;8.28;56.48;101055.13;146620;670;45028;-64
2024/02/07 06:06:34;;;;;;;;;32.50;25.25;;;;;6.10;55.22;100638.34;146615;572;46015;-65
2024/02/07 06:09:34;;;;;;;;;50.25;39.75;;;;;9.29;58.41;101050.37;146620;628;46010;-64
2024/02/07 06:12:44;;;;;;;;;29.25;24.75;;;;;10.56;53.09;101056.19;146615;572;46016;-65
2024/02/07 06:15:39;;;;;;;;;27.50;23.25;;;;;11.76;49.95;101058.34;146614;584;46020;-66
2024/02/07 06:18:40;;;;;;;;;86.00;75.33;;;;;12.92;48.34;101063.22;146614;564;46016;-66
2024/02/07 06:21:39;;;;;;;;;30.00;24.25;;;;;13.82;46.87;101079.50;146624;589;46010;-66
2024/02/07 06:24:33;;;;;;;;;69.75;51.00;;;;;14.51;46.27;101065.91;146611;586;47033;-67
2024/02/07 06:27:42;;;;;;;;;34.50;28.25;;;;;15.17;45.27;101068.47;146619;564;46010;-65
2024/02/07 06:30:49;;;;;;;;;35.75;28.50;;;;;16.01;42.24;101045.47;146611;569;47016;-66
2024/02/07 06:33:42;;;;;;;;;65.50;48.50;;;;;16.90;41.84;101052.72;146618;690;46020;-66
2024/02/07 06:36:34;;;;;;;;;51.50;40.75;;;;;17.78;40.37;101057.03;146613;571;46014;-66
2024/02/07 06:39:26;;;;;;;;;27.25;23.50;;;;;18.58;39.15;101048.59;146618;638;47010;-65
2024/02/07 06:42:24;;;;;;;;;23.25;20.50;;;;;19.21;39.82;101052.66;146615;597;46016;-64
2024/02/07 06:45:19;;;;;;;;;20.75;19.25;;;;;19.93;38.38;101051.47;146617;628;46021;-65
2024/02/07 06:48:16;;;;;;;;;32.75;27.75;;;;;20.74;36.42;101056.38;146615;593;46916;-65
2024/02/07 06:51:12;;;;;;;;;39.75;31.50;;;;;21.39;33.74;101046.72;146614;603;46020;-64
2024/02/07 06:54:16;;;;;;;;;35.00;29.00;;;;;21.26;32.96;101044.78;146619;684;46033;-64
2024/02/07 06:57:14;;;;;;;;;36.25;28.00;;;;;20.59;33.46;101052.59;146620;583;46010;-64
2024/02/07 07:00:11;;;;;;;;;33.25;29.25;;;;;19.90;34.51;101047.03;146616;569;46016;-65
2024/02/07 07:03:03;;;;;;;;;34.25;28.75;;;;;19.27;34.11;101048.41;146620;606;46020;-64
2024/02/07 07:05:59;;;;;;;;;38.25;30.00;;;;;18.69;37.29;101037.47;146614;576;46013;-63
2024/02/07 07:09:00;;;;;;;;;25.75;23.50;;;;;18.42;37.81;101034.19;146617;579;46010;-64
2024/02/07 07:12:07;;;;;;;;;37.00;30.00;;;;;18.25;37.99;101031.13;146615;739;46014;-64
2024/02/07 07:15:10;;;;;;;;;38.25;30.75;;;;;18.05;38.11;101030.66;146619;633;46020;-64
2024/02/07 07:18:04;;;;;;;;;43.50;33.25;;;;;17.86;37.72;101021.41;146617;607;46012;-65
2024/02/07 07:21:01;;;;;;;;;45.00;36.50;;;;;17.71;39.31;101037.59;146618;617;45021;-64
2024/02/07 07:23:54;;;;;;;;;44.00;34.25;;;;;17.56;38.55;101026.69;146613;582;46016;-63
2024/02/07 07:26:46;;;;;;;;;37.75;31.25;;;;;17.33;39.49;101039.16;146620;661;45031;-66
2024/02/07 07:29:40;;;;;;;;;35.50;31.25;;;;;17.22;39.15;101035.31;146615;581;46911;-64
2024/02/07 07:32:35;;;;;;;;;31.50;28.75;;;;;17.13;40.13;101038.56;146617;740;46010;-64
2024/02/07 07:35:27;;;;;;;;;28.50;28.50;;;;;17.15;39.72;101036.00;146617;619;47012;-64
2024/02/07 07:38:20;;;;;;;;;35.25;27.25;;;;;17.22;40.56;101032.69;146616;642;46020;-65
2024/02/07 07:41:18;;;;;;;;;36.50;29.25;;;;;17.23;40.30;101029.25;146618;647;46014;-63
2024/02/07 07:44:12;;;;;;;;;30.75;28.25;;;;;17.28;40.36;101025.91;146611;621;47021;-65
2024/02/07 07:47:04;;;;;;;;;31.00;26.25;;;;;17.29;40.88;101027.69;146614;609;46016;-65
2024/02/07 07:49:56;;;;;;;;;32.25;25.50;;;;;17.31;39.73;101015.50;146617;633;47021;-64
2024/02/07 07:52:54;;;;;;;;;24.50;22.50;;;;;17.26;40.69;101013.63;146614;606;46912;-64
2024/02/07 07:55:47;;;;;;;;;27.50;26.00;;;;;17.24;40.76;101012.69;146636;709;45020;-65
2024/02/07 07:58:43;;;;;;;;;28.75;26.25;;;;;17.23;40.19;101006.56;146632;578;45012;-65
2024/02/07 08:01:39;;;;;;;;;24.50;24.50;;;;;17.29;40.16;101013.72;146637;569;46020;-65
2024/02/07 08:04:35;;;;;;;;;27.75;26.00;;;;;17.40;41.05;101014.00;146633;585;45013;-64
2024/02/07 08:07:33;;;;;;;;;26.50;24.00;;;;;17.59;41.01;100995.31;146634;563;46010;-65
2024/02/07 08:10:28;;;;;;;;;24.00;22.00;;;;;17.76;40.65;101003.63;146634;638;45016;-65
2024/02/07 08:13:20;;;;;;;;;21.00;18.75;;;;;17.90;40.30;101001.41;146636;570;45011;-65
2024/02/07 08:16:16;;;;;;;;;16.75;14.50;;;;;18.02;40.11;101006.06;146635;645;45016;-66
2024/02/07 08:19:12;;;;;;;;;18.75;16.75;;;;;18.13;39.48;101000.25;146635;593;45013;-65
2024/02/07 08:22:12;;;;;;;;;10.75;10.50;;;;;18.28;39.64;101010.22;146634;613;45034;-65
2024/02/07 08:25:04;;;;;;;;;9.75;9.25;;;;;18.44;38.91;101003.59;146630;721;46010;-65
2024/02/07 08:27:57;;;;;;;;;12.00;10.25;;;;;18.54;38.45;100994.22;146634;569;45016;-66
2024/02/07 08:30:51;;;;;;;;;7.50;7.50;;;;;18.64;39.08;101012.84;146635;605;46020;-66
2024/02/07 08:33:47;;;;;;;;;10.75;8.75;;;;;18.79;39.26;101011.47;146636;650;45016;-65
2024/02/07 08:36:39;;;;;;;;;13.00;9.25;;;;;18.93;38.12;101000.38;146628;661;46020;-66
2024/02/07 08:39:36;;;;;;;;;10.25;9.50;;;;;19.06;38.02;100995.38;146632;563;46016;-64
2024/02/07 08:42:38;;;;;;;;;8.75;8.25;;;;;19.13;37.00;100994.66;146635;655;46019;-66
2024/02/07 08:45:39;;;;;;;;;12.50;11.50;;;;;19.19;37.20;100989.53;146635;586;45016;-66
2024/02/07 08:48:47;;;;;;;;;10.00;9.00;;;;;19.28;37.51;100983.56;146638;609;45020;-64
2024/02/07 08:51:43;;;;;;;;;8.25;8.25;;;;;19.29;37.37;100995.88;146635;577;46016;-66
2024/02/07 08:54:41;;;;;;;;;12.25;10.75;;;;;19.22;36.16;100978.19;146626;624;46010;-67
2024/02/07 08:57:36;;;;;;;;;5.75;5.75;;;;;19.10;37.14;100966.56;146619;571;46013;-68
2024/02/07 09:00:49;;;;;;;;;9.75;8.75;;;;;19.04;39.31;100968.19;146612;569;46020;-67
2024/02/07 09:03:44;;;;;;;;;11.25;8.00;;;;;19.02;37.16;100969.91;146618;598;46017;-66
2024/02/07 09:06:48;;;;;;;;;8.50;7.75;;;;;19.01;37.44;100961.12;146622;612;46020;-68
2024/02/07 09:09:46;;;;;;;;;12.25;8.00;;;;;18.94;37.14;100961.88;146616;584;46016;-68
2024/02/07 09:12:40;;;;;;;;;9.75;9.75;;;;;18.86;37.02;100955.56;146623;586;46010;-65
2024/02/07 09:15:42;;;;;;;;;9.50;9.50;;;;;18.78;39.07;100959.75;146618;593;46012;-66
2024/02/07 09:18:36;;;;;;;;;8.50;8.00;;;;;18.74;37.20;100958.81;146623;666;46021;-65
2024/02/07 09:21:34;;;;;;;;;9.50;9.00;;;;;18.74;38.58;100958.81;146620;630;47012;-68
2024/02/07 09:24:27;;;;;;;;;9.75;7.00;;;;;18.83;38.00;100960.75;146624;665;46010;-68
2024/02/07 09:27:28;;;;;;;;;8.75;7.00;;;;;18.97;38.52;100958.41;146618;626;46912;-69
2024/02/07 09:30:39;;;;;;;;;9.00;9.00;;;;;19.14;37.50;100957.00;146623;654;46014;-68
2024/02/07 09:33:31;;;;;;;;;9.75;9.25;;;;;19.31;36.78;100954.69;146617;644;46017;-66
2024/02/07 09:36:27;;;;;;;;;10.75;9.00;;;;;19.41;37.95;100946.16;146622;626;46020;-66
2024/02/07 09:39:46;;;;;;;;;9.25;7.00;;;;;19.59;37.55;100941.22;146618;685;48016;-67
2024/02/07 09:42:46;;;;;;;;;7.25;5.75;;;;;19.82;36.28;100938.13;146620;574;47020;-66
2024/02/07 09:45:42;;;;;;;;;9.25;8.00;;;;;20.03;35.08;100932.31;146618;694;47012;-67
2024/02/07 09:48:40;;;;;;;;;10.75;10.50;;;;;20.13;36.24;100925.47;146620;704;46021;-66
2024/02/07 09:51:38;;;;;;;;;10.50;9.50;;;;;20.17;35.44;100925.53;146616;626;46016;-66
2024/02/07 09:54:51;;;;;;;;;11.00;8.75;;;;;20.20;35.87;100919.44;146622;611;46020;-67
2024/02/07 09:57:47;;;;;;;;;7.75;7.75;;;;;20.27;35.84;100918.66;146617;570;46012;-68
2024/02/07 10:00:41;;;;;;;;;8.75;8.00;;;;;20.38;35.52;100908.28;146618;633;47027;-67
2024/02/07 10:03:41;;;;;;;;;10.75;10.00;;;;;20.47;36.21;100903.16;146619;578;46013;-67
2024/02/07 10:06:40;;;;;;;;;8.00;7.25;;;;;20.53;35.29;100905.91;146619;569;46020;-70
2024/02/07 10:09:35;;;;;;;;;10.50;8.00;;;;;20.58;34.65;100896.28;146615;593;47016;-69
2024/02/07 10:12:44;;;;;;;;;11.75;9.50;;;;;20.64;33.85;100887.59;146622;566;46021;-68
2024/02/07 10:15:42;;;;;;;;;10.50;7.50;;;;;20.74;34.65;100884.19;146614;622;47014;-69
2024/02/07 10:18:35;;;;;;;;;7.75;7.00;;;;;20.87;33.85;100879.94;146615;619;46031;-68
2024/02/07 10:21:40;;;;;;;;;10.00;7.00;;;;;20.98;34.66;100873.06;146617;630;46016;-65
2024/02/07 10:24:42;;;;;;;;;6.75;6.00;;;;;21.09;34.35;100868.81;146620;567;46013;-69
2024/02/07 10:27:34;;;;;;;;;8.33;7.33;;;;;21.17;33.26;100864.47;146617;573;46915;-66
2024/02/07 10:30:31;;;;;;;;;7.75;5.00;;;;;21.28;33.32;100861.97;146620;655;47010;-68
2024/02/07 10:33:39;;;;;;;;;5.00;5.00;;;;;21.42;33.44;100849.78;146619;642;46017;-67
2024/02/07 10:36:41;;;;;;;;;4.00;4.00;;;;;21.56;31.21;100852.56;146624;569;45022;-68
2024/02/07 10:39:39;;;;;;;;;4.00;4.00;;;;;21.57;31.65;100849.06;146617;573;46012;-66
2024/02/07 10:42:31;;;;;;;;;5.00;5.00;;;;;21.42;30.51;100846.28;146622;609;46012;-65
2024/02/07 10:45:38;;;;;;;;;6.67;4.33;;;;;21.25;32.05;100851.38;146619;581;47016;-66
2024/02/07 10:48:41;;;;;;;;;4.00;4.00;;;;;21.22;31.11;100830.25;146620;668;46020;-66
2024/02/07 10:51:35;;;;;;;;;7.25;4.00;;;;;21.35;31.25;100839.16;146616;657;47012;-67
2024/02/07 10:54:30;;;;;;;;;6.33;4.00;;;;;21.55;32.23;100834.06;146622;598;46021;-68
2024/02/07 10:57:31;;;;;;;;;6.00;5.00;;;;;21.65;31.10;100836.81;146618;581;46030;-66
2024/02/07 11:00:29;;;;;;;;;4.00;4.00;;;;;21.56;32.52;100834.09;146622;639;45032;-66
2024/02/07 11:03:23;;;;;;;;;8.00;5.33;;;;;21.45;30.83;100836.63;146616;565;47013;-65
2024/02/07 11:06:22;;;;;;;;;2.00;1.00;;;;;21.40;32.22;100833.09;146621;586;47010;-67
2024/02/07 11:09:26;;;;;;;;;4.00;3.00;;;;;21.51;31.41;100832.28;146622;620;46016;-65
2024/02/07 11:12:28;;;;;;;;;6.25;5.25;;;;;21.70;31.00;100828.03;146617;613;47010;-66
2024/02/07 11:15:34;;;;;;;;;2.00;2.00;;;;;21.92;32.70;100828.19;146617;633;46012;-66
2024/02/07 11:18:26;;;;;;;;;5.67;5.00;;;;;22.13;30.28;100814.25;146623;671;46021;-67
2024/02/07 11:21:42;;;;;;;;;6.00;5.00;;;;;22.32;32.34;100817.88;146617;593;47016;-66
2024/02/07 11:24:38;;;;;;;;;4.67;4.67;;;;;22.50;30.64;100806.50;146622;576;46021;-66
2024/02/07 11:27:51;;;;;;;;;5.33;5.33;;;;;22.69;32.79;100803.94;146619;611;46014;-66
2024/02/07 11:30:49;;;;;;;;;5.75;4.75;;;;;22.75;29.98;100809.25;146618;575;47010;-66
2024/02/07 11:33:54;;;;;;;;;6.33;4.33;;;;;22.65;30.96;100816.25;146616;609;46017;-66
2024/02/07 11:36:57;;;;;;;;;5.00;4.00;;;;;22.63;33.33;100803.91;146618;600;47010;-65
2024/02/07 11:40:03;;;;;;;;;4.67;4.67;;;;;22.74;31.73;100796.87;146617;590;47012;-67
2024/02/07 11:43:04;;;;;;;;;8.33;7.00;;;;;22.87;31.49;100790.75;146622;586;46010;-66
2024/02/07 11:46:09;;;;;;;;;6.00;6.00;;;;;22.91;30.71;100781.94;146620;569;47012;-66
2024/02/07 11:49:10;;;;;;;;;2.75;2.75;;;;;22.85;30.25;100795.16;146619;578;46021;-66
2024/02/07 11:52:14;;;;;;;;;5.00;4.00;;;;;22.79;29.68;100793.37;146617;610;46016;-67
2024/02/07 11:55:20;;;;;;;;;4.00;3.00;;;;;22.70;30.73;100772.22;146624;625;45021;-66
2024/02/07 11:58:18;;;;;;;;;3.33;3.33;;;;;22.83;31.23;100792.53;146617;648;46014;-66
2024/02/07 12:01:15;;;;;;;;;4.33;3.33;;;;;22.91;29.78;100794.28;146622;591;46018;-67
2024/02/07 12:04:13;;;;;;;;;3.00;3.00;;;;;23.02;30.38;100785.53;146617;583;46024;-67
2024/02/07 12:07:12;;;;;;;;;5.00;5.00;;;;;23.24;31.68;100780.22;146621;637;46020;-68
2024/02/07 12:10:19;;;;;;;;;6.33;5.00;;;;;23.51;32.19;100774.94;146618;599;47013;-67
2024/02/07 12:13:33;;;;;;;;;5.33;4.00;;;;;23.73;30.14;100762.59;146620;576;46020;-66
2024/02/07 12:16:34;;;;;;;;;6.67;5.67;;;;;23.96;30.04;100748.41;146617;583;46012;-66
2024/02/07 12:19:29;;;;;;;;;6.33;6.00;;;;;24.12;29.82;100755.41;146618;671;46020;-66
2024/02/07 12:22:35;;;;;;;;;4.00;4.00;;;;;24.22;30.55;100750.97;146618;652;46916;-66
2024/02/07 12:25:35;;;;;;;;;5.67;5.67;;;;;24.28;32.79;100753.59;146620;597;47010;-65
2024/02/07 12:28:39;;;;;;;;;7.67;6.67;;;;;24.16;33.46;100740.38;146621;630;46012;-66
2024/02/07 12:31:30;;;;;;;;;8.00;7.67;;;;;24.02;30.88;100736.91;146707;570;46022;-69
2024/02/07 12:34:32;;;;;;;;;8.00;8.00;;;;;23.72;33.64;100746.72;146620;728;47016;-69
2024/02/07 12:37:29;;;;;;;;;5.50;5.25;;;;;23.42;33.78;100752.91;146627;653;47020;-67
2024/02/07 12:40:22;;;;;;;;;9.00;6.25;;;;;23.10;32.94;100756.44;146620;624;48014;-68
2024/02/07 12:43:18;;;;;;;;;11.25;11.25;;;;;22.76;34.53;100756.34;146630;642;46021;-67
2024/02/07 12:46:22;;;;;;;;;13.75;11.00;;;;;22.55;36.17;100756.31;146615;573;47917;-68
2024/02/07 12:49:26;;;;;;;;;9.00;6.00;;;;;22.41;34.80;100761.56;146619;575;46020;-68
2024/02/07 12:52:27;;;;;;;;;7.00;6.00;;;;;22.23;35.29;100765.00;146623;587;47012;-68
2024/02/07 12:55:26;;;;;;;;;7.00;7.00;;;;;22.21;36.11;100758.87;146625;568;47010;-68
2024/02/07 12:58:27;;;;;;;;;7.25;6.00;;;;;22.26;35.04;100764.16;146622;681;46017;-67
2024/02/07 13:01:28;;;;;;;;;13.25;12.75;;;;;22.00;36.56;100756.97;146626;604;46020;-68
2024/02/07 13:04:21;;;;;;;;;8.50;8.00;;;;;21.73;35.81;100759.44;146616;632;46035;-66
2024/02/07 13:07:16;;;;;;;;;11.25;7.50;;;;;21.45;36.37;100753.97;146628;569;46029;-68
2024/02/07 13:10:12;;;;;;;;;8.75;8.00;;;;;21.15;36.30;100758.13;146622;664;46014;-68
2024/02/07 13:13:19;;;;;;;;;14.75;12.00;;;;;20.90;37.05;100753.47;146629;726;46012;-69
2024/02/07 13:16:20;;;;;;;;;11.00;8.75;;;;;20.61;37.09;100754.06;146613;647;47014;-67
2024/02/07 13:19:24;;;;;;;;;17.50;15.75;;;;;20.38;38.47;100752.91;146628;706;46021;-68
2024/02/07 13:22:16;;;;;;;;;21.75;20.00;;;;;20.27;39.00;100752.75;146613;597;47016;-67
2024/02/07 13:25:21;;;;;;;;;15.25;14.25;;;;;20.24;39.19;100750.97;146619;626;46024;-69
2024/02/07 13:28:15;;;;;;;;;11.00;9.00;;;;;20.25;38.29;100750.13;146616;584;46034;-67
2024/02/07 13:31:12;;;;;;;;;9.50;8.50;;;;;20.25;38.28;100752.75;146620;602;46020;-69
2024/02/07 13:34:28;;;;;;;;;13.75;13.00;;;;;20.25;37.77;100744.00;146616;674;47016;-67
2024/02/07 13:37:21;;;;;;;;;15.00;10.75;;;;;20.24;37.92;100735.19;146610;565;47020;-68
2024/02/07 13:40:18;;;;;;;;;16.25;15.25;;;;;20.17;37.46;100738.59;146610;593;47012;-68
2024/02/07 13:43:13;;;;;;;;;13.00;13.00;;;;;20.05;37.84;100731.44;146610;569;46021;-68
2024/02/07 13:46:13;;;;;;;;;13.00;10.00;;;;;19.86;38.06;100731.19;146610;644;46016;-67
2024/02/07 13:49:09;;;;;;;;;14.50;12.75;;;;;19.65;38.54;100740.53;146612;571;47012;-69
2024/02/07 13:52:15;;;;;;;;;11.25;8.25;;;;;19.58;39.50;100747.41;146611;615;46012;-67
2024/02/07 13:55:13;;;;;;;;;12.25;11.50;;;;;19.57;39.26;100739.53;146621;574;46020;-68
2024/02/07 13:58:12;;;;;;;;;10.25;10.25;;;;;19.58;38.87;100751.81;146612;606;47012;-66
2024/02/07 14:01:11;;;;;;;;;8.75;8.75;;;;;19.53;38.53;100740.31;146613;734;46010;-67
2024/02/07 14:04:09;;;;;;;;;8.00;7.00;;;;;19.49;37.33;100746.41;146614;690;48014;-64
2024/02/07 14:07:10;;;;;;;;;11.75;11.75;;;;;19.41;37.90;100748.94;146621;569;46033;-67
2024/02/07 14:10:13;;;;;;;;;15.00;13.00;;;;;19.39;38.90;100743.62;146612;606;46012;-67
2024/02/07 14:13:16;;;;;;;;;;;;;;;;;;;;;
2024/02/07 14:16:17;;;;;;;;;10.75;10.25;;;;;19.35;38.79;100747.09;146618;600;46014;-67
2024/02/07 14:19:13;;;;;;;;;12.50;11.00;;;;;19.33;39.45;100737.41;146608;578;47010;-67
2024/02/07 14:22:08;;;;;;;;;14.25;11.00;;;;;19.27;39.75;100730.28;146610;574;46016;-67
2024/02/07 14:25:15;;;;;;;;;16.00;14.50;;;;;18.36;39.35;100578.16;146610;618;46020;-67
2024/02/07 14:28:10;;;;;;;;;13.00;10.00;;;;;19.20;39.67;100732.81;146608;586;46016;-67
2024/02/07 14:31:08;;;;;;;;;16.75;15.75;;;;;18.30;39.08;100593.78;146612;579;46020;-67
2024/02/07 14:34:13;;;;;;;;;14.00;12.00;;;;;19.10;39.66;100729.16;146612;585;46013;-67
2024/02/07 14:37:15;;;;;;;;;11.25;9.50;;;;;19.08;40.37;100730.88;146611;676;47020;-67
2024/02/07 14:40:14;;;;;;;;;11.50;9.00;;;;;18.34;40.36;100599.97;146617;573;46016;-67
2024/02/07 14:43:20;;;;;;;;;12.75;9.75;;;;;19.09;40.79;100727.38;146619;647;46020;-68
2024/02/07 14:46:13;;;;;;;;;12.25;10.25;;;;;19.11;41.33;100731.78;146615;565;47012;-67
2024/02/07 14:49:15;;;;;;;;;12.75;11.00;;;;;19.13;40.66;100731.84;146612;633;47021;-67
2024/02/07 14:52:12;;;;;;;;;15.00;11.00;;;;;19.21;40.73;100737.19;146609;573;46016;-67
2024/02/07 14:55:20;;;;;;;;;10.00;10.00;;;;;18.44;40.99;100592.31;146610;696;47013;-67
2024/02/07 14:58:12;;;;;;;;;12.50;11.75;;;;;19.25;40.66;100729.41;146609;622;46016;-67